Morgantown Municipal Walter L. Bill Hart Field Morgantown US
ICAO: KMGW
IATA: MGW
Category: Medium
Scheduled Services: Yes

Elevation: 1248 ft
TransAlt. 18000 ft.

Airport Communications:
CLARKSBURG APP/DEP:121.15
ASOS:120.675
CTAF:125.1
GND:121.7
ELKINS RDO:122.6
TWR:125.1
UNICOM:122.95

KMGW Zoom In..

If you have problems with the map follow the link
https://www.worldairports.se/pages/airport.php?
ICAO=KMGW

Runways:

(A) RW 18 length 5199 ft width 150 ft
ILS 108.50 / hdg 181

(B) RW 36 length 5199 ft width 150 ft
---- / hdg 1

Location; KMGW
Day. 18 / Time. 22.07 Zulu
* Altimeter: 30.14
* Temperature: 02° c. 35.6°f.
* Wind from: 300° Speed 03 kn.
Dewpoint: 01° c.
Visibility: 6 Statute Miles.
Clouds: Broken 900 ft.
Clouds: Overcast 1400 ft.
Conditions: Mist.

KMGW 182207Z 30003KT 6SM BR BKN009 OVC014 02/01 A3014 RMK AO2 CIG 008V012 T00170006


Wind From 300°
Speed 03 kn.

 
 
jpsmedia.com for Web Design worldairports.se 2019   terms of use